sensor_id;sensor_type;location;lat;lon;timestamp;P1;durP1;ratioP1;P2;durP2;ratioP2
14883;SDS011;7534;50.762;7.000;2023-01-15T00:01:50;1.13;;;0.63;;
14883;SDS011;7534;50.762;7.000;2023-01-15T00:04:15;1.07;;;0.60;;
14883;SDS011;7534;50.762;7.000;2023-01-15T00:06:42;1.47;;;0.43;;
14883;SDS011;7534;50.762;7.000;2023-01-15T00:09:09;1.53;;;0.80;;
14883;SDS011;7534;50.762;7.000;2023-01-15T00:11:39;1.00;;;0.70;;
14883;SDS011;7534;50.762;7.000;2023-01-15T00:14:05;1.30;;;0.70;;
14883;SDS011;7534;50.762;7.000;2023-01-15T00:16:31;2.40;;;0.80;;
14883;SDS011;7534;50.762;7.000;2023-01-15T00:18:58;1.13;;;0.80;;
14883;SDS011;7534;50.762;7.000;2023-01-15T00:21:26;0.60;;;0.57;;
14883;SDS011;7534;50.762;7.000;2023-01-15T00:23:53;1.67;;;0.70;;
14883;SDS011;7534;50.762;7.000;2023-01-15T00:26:38;0.93;;;0.77;;
14883;SDS011;7534;50.762;7.000;2023-01-15T00:29:23;1.30;;;0.70;;
14883;SDS011;7534;50.762;7.000;2023-01-15T00:32:01;3.23;;;0.80;;
14883;SDS011;7534;50.762;7.000;2023-01-15T00:34:31;2.60;;;0.80;;
14883;SDS011;7534;50.762;7.000;2023-01-15T00:36:57;0.70;;;0.60;;
14883;SDS011;7534;50.762;7.000;2023-01-15T00:39:23;0.60;;;0.50;;
14883;SDS011;7534;50.762;7.000;2023-01-15T00:41:50;1.93;;;0.87;;
14883;SDS011;7534;50.762;7.000;2023-01-15T00:44:17;1.10;;;0.80;;
14883;SDS011;7534;50.762;7.000;2023-01-15T00:46:44;1.57;;;0.50;;
14883;SDS011;7534;50.762;7.000;2023-01-15T00:49:10;1.67;;;0.70;;
14883;SDS011;7534;50.762;7.000;2023-01-15T00:51:36;0.83;;;0.60;;
14883;SDS011;7534;50.762;7.000;2023-01-15T00:54:02;0.70;;;0.53;;
14883;SDS011;7534;50.762;7.000;2023-01-15T00:56:29;1.03;;;0.50;;
14883;SDS011;7534;50.762;7.000;2023-01-15T00:58:55;2.40;;;0.80;;
14883;SDS011;7534;50.762;7.000;2023-01-15T01:01:22;2.77;;;0.73;;
14883;SDS011;7534;50.762;7.000;2023-01-15T01:03:49;2.60;;;0.77;;
14883;SDS011;7534;50.762;7.000;2023-01-15T01:06:16;1.40;;;0.80;;
14883;SDS011;7534;50.762;7.000;2023-01-15T01:08:44;1.33;;;0.70;;
14883;SDS011;7534;50.762;7.000;2023-01-15T01:11:11;1.17;;;0.60;;
14883;SDS011;7534;50.762;7.000;2023-01-15T01:13:40;1.33;;;0.70;;
14883;SDS011;7534;50.762;7.000;2023-01-15T01:18:49;0.97;;;0.60;;
14883;SDS011;7534;50.762;7.000;2023-01-15T01:21:15;1.17;;;0.73;;
14883;SDS011;7534;50.762;7.000;2023-01-15T01:23:41;1.57;;;0.70;;
14883;SDS011;7534;50.762;7.000;2023-01-15T01:26:06;1.37;;;0.70;;
14883;SDS011;7534;50.762;7.000;2023-01-15T01:28:32;1.67;;;0.87;;
14883;SDS011;7534;50.762;7.000;2023-01-15T01:30:58;0.87;;;0.53;;
14883;SDS011;7534;50.762;7.000;2023-01-15T01:33:23;2.40;;;0.90;;
14883;SDS011;7534;50.762;7.000;2023-01-15T01:35:49;1.40;;;0.80;;
14883;SDS011;7534;50.762;7.000;2023-01-15T01:38:16;0.43;;;0.43;;
14883;SDS011;7534;50.762;7.000;2023-01-15T01:40:42;0.80;;;0.50;;
14883;SDS011;7534;50.762;7.000;2023-01-15T01:43:16;1.53;;;0.57;;
14883;SDS011;7534;50.762;7.000;2023-01-15T01:45:49;1.73;;;0.70;;
14883;SDS011;7534;50.762;7.000;2023-01-15T01:48:16;0.80;;;0.50;;
14883;SDS011;7534;50.762;7.000;2023-01-15T01:50:48;0.73;;;0.60;;
14883;SDS011;7534;50.762;7.000;2023-01-15T01:53:25;0.90;;;0.53;;
14883;SDS011;7534;50.762;7.000;2023-01-15T01:55:55;1.17;;;0.70;;
14883;SDS011;7534;50.762;7.000;2023-01-15T01:58:23;1.33;;;0.80;;
14883;SDS011;7534;50.762;7.000;2023-01-15T02:00:55;0.87;;;0.47;;
14883;SDS011;7534;50.762;7.000;2023-01-15T02:03:22;0.60;;;0.43;;
14883;SDS011;7534;50.762;7.000;2023-01-15T02:06:00;1.20;;;0.40;;
14883;SDS011;7534;50.762;7.000;2023-01-15T02:08:32;0.70;;;0.50;;
14883;SDS011;7534;50.762;7.000;2023-01-15T02:10:59;0.40;;;0.40;;
14883;SDS011;7534;50.762;7.000;2023-01-15T02:16:14;0.97;;;0.50;;
14883;SDS011;7534;50.762;7.000;2023-01-15T02:24:23;1.07;;;0.47;;
14883;SDS011;7534;50.762;7.000;2023-01-15T02:32:45;0.53;;;0.53;;
14883;SDS011;7534;50.762;7.000;2023-01-15T02:35:28;0.40;;;0.40;;
14883;SDS011;7534;50.762;7.000;2023-01-15T02:38:09;0.30;;;0.30;;
14883;SDS011;7534;50.762;7.000;2023-01-15T02:40:45;0.57;;;0.50;;
14883;SDS011;7534;50.762;7.000;2023-01-15T02:43:14;0.30;;;0.30;;
14883;SDS011;7534;50.762;7.000;2023-01-15T02:45:45;0.83;;;0.30;;
14883;SDS011;7534;50.762;7.000;2023-01-15T02:48:16;0.60;;;0.50;;
14883;SDS011;7534;50.762;7.000;2023-01-15T02:50:48;0.27;;;0.27;;
14883;SDS011;7534;50.762;7.000;2023-01-15T02:53:21;0.70;;;0.33;;
14883;SDS011;7534;50.762;7.000;2023-01-15T02:55:54;1.77;;;0.60;;
14883;SDS011;7534;50.762;7.000;2023-01-15T02:58:29;1.10;;;0.40;;
14883;SDS011;7534;50.762;7.000;2023-01-15T03:01:03;1.07;;;0.50;;
14883;SDS011;7534;50.762;7.000;2023-01-15T03:06:35;1.10;;;0.37;;
14883;SDS011;7534;50.762;7.000;2023-01-15T03:09:08;0.70;;;0.47;;
14883;SDS011;7534;50.762;7.000;2023-01-15T03:11:35;2.50;;;0.63;;
14883;SDS011;7534;50.762;7.000;2023-01-15T03:14:18;1.37;;;0.50;;
14883;SDS011;7534;50.762;7.000;2023-01-15T03:16:52;0.77;;;0.30;;
14883;SDS011;7534;50.762;7.000;2023-01-15T03:19:44;0.87;;;0.53;;
14883;SDS011;7534;50.762;7.000;2023-01-15T03:22:26;1.20;;;0.40;;
14883;SDS011;7534;50.762;7.000;2023-01-15T03:25:05;0.83;;;0.50;;
14883;SDS011;7534;50.762;7.000;2023-01-15T03:27:43;0.37;;;0.37;;
14883;SDS011;7534;50.762;7.000;2023-01-15T03:30:11;2.73;;;0.60;;
14883;SDS011;7534;50.762;7.000;2023-01-15T03:32:41;1.60;;;0.50;;
14883;SDS011;7534;50.762;7.000;2023-01-15T03:35:38;2.23;;;0.60;;
14883;SDS011;7534;50.762;7.000;2023-01-15T03:38:18;2.67;;;0.83;;
14883;SDS011;7534;50.762;7.000;2023-01-15T03:41:37;1.33;;;0.50;;
14883;SDS011;7534;50.762;7.000;2023-01-15T03:52:34;1.40;;;0.60;;
14883;SDS011;7534;50.762;7.000;2023-01-15T03:55:14;2.30;;;0.77;;
14883;SDS011;7534;50.762;7.000;2023-01-15T03:57:58;1.23;;;0.60;;
14883;SDS011;7534;50.762;7.000;2023-01-15T04:03:16;4.87;;;0.73;;
14883;SDS011;7534;50.762;7.000;2023-01-15T04:05:46;2.37;;;0.80;;
14883;SDS011;7534;50.762;7.000;2023-01-15T04:08:14;2.70;;;0.90;;
14883;SDS011;7534;50.762;7.000;2023-01-15T04:10:53;1.67;;;0.70;;
14883;SDS011;7534;50.762;7.000;2023-01-15T04:13:24;3.20;;;0.70;;
14883;SDS011;7534;50.762;7.000;2023-01-15T04:15:50;2.20;;;0.60;;
14883;SDS011;7534;50.762;7.000;2023-01-15T04:18:16;4.23;;;0.83;;
14883;SDS011;7534;50.762;7.000;2023-01-15T04:20:43;1.67;;;0.60;;
14883;SDS011;7534;50.762;7.000;2023-01-15T04:23:09;2.53;;;0.87;;
14883;SDS011;7534;50.762;7.000;2023-01-15T04:25:35;2.93;;;0.60;;
14883;SDS011;7534;50.762;7.000;2023-01-15T04:28:01;2.00;;;0.80;;
14883;SDS011;7534;50.762;7.000;2023-01-15T04:30:27;2.70;;;0.60;;
14883;SDS011;7534;50.762;7.000;2023-01-15T04:32:53;1.30;;;0.60;;
14883;SDS011;7534;50.762;7.000;2023-01-15T04:35:19;2.23;;;0.70;;
14883;SDS011;7534;50.762;7.000;2023-01-15T04:37:45;3.00;;;0.90;;
14883;SDS011;7534;50.762;7.000;2023-01-15T04:40:11;3.07;;;0.87;;
14883;SDS011;7534;50.762;7.000;2023-01-15T04:42:58;3.40;;;0.93;;
14883;SDS011;7534;50.762;7.000;2023-01-15T04:45:42;5.77;;;0.90;;
14883;SDS011;7534;50.762;7.000;2023-01-15T04:48:09;1.53;;;0.60;;
14883;SDS011;7534;50.762;7.000;2023-01-15T04:50:36;2.27;;;0.80;;
14883;SDS011;7534;50.762;7.000;2023-01-15T04:53:03;1.30;;;0.70;;
14883;SDS011;7534;50.762;7.000;2023-01-15T04:55:28;1.67;;;0.70;;
14883;SDS011;7534;50.762;7.000;2023-01-15T04:57:54;2.97;;;0.70;;
14883;SDS011;7534;50.762;7.000;2023-01-15T05:00:20;2.13;;;0.83;;
14883;SDS011;7534;50.762;7.000;2023-01-15T05:02:47;2.00;;;0.63;;
14883;SDS011;7534;50.762;7.000;2023-01-15T05:05:14;2.00;;;0.70;;
14883;SDS011;7534;50.762;7.000;2023-01-15T05:07:40;1.17;;;0.70;;
14883;SDS011;7534;50.762;7.000;2023-01-15T05:10:06;1.53;;;0.60;;
14883;SDS011;7534;50.762;7.000;2023-01-15T05:12:32;1.73;;;0.90;;
14883;SDS011;7534;50.762;7.000;2023-01-15T05:14:58;2.83;;;0.60;;
14883;SDS011;7534;50.762;7.000;2023-01-15T05:17:24;1.23;;;0.70;;
14883;SDS011;7534;50.762;7.000;2023-01-15T05:19:50;2.80;;;0.77;;
14883;SDS011;7534;50.762;7.000;2023-01-15T05:22:15;1.67;;;0.60;;
14883;SDS011;7534;50.762;7.000;2023-01-15T05:24:41;2.60;;;0.70;;
14883;SDS011;7534;50.762;7.000;2023-01-15T05:27:07;2.13;;;0.80;;
14883;SDS011;7534;50.762;7.000;2023-01-15T05:29:33;3.17;;;0.77;;
14883;SDS011;7534;50.762;7.000;2023-01-15T05:31:59;1.93;;;0.60;;
14883;SDS011;7534;50.762;7.000;2023-01-15T05:34:25;1.83;;;0.80;;
14883;SDS011;7534;50.762;7.000;2023-01-15T05:36:53;1.80;;;0.70;;
14883;SDS011;7534;50.762;7.000;2023-01-15T05:39:19;2.53;;;0.77;;
14883;SDS011;7534;50.762;7.000;2023-01-15T05:41:45;2.07;;;0.77;;
14883;SDS011;7534;50.762;7.000;2023-01-15T05:44:14;3.27;;;0.80;;
14883;SDS011;7534;50.762;7.000;2023-01-15T05:46:52;2.23;;;0.60;;
14883;SDS011;7534;50.762;7.000;2023-01-15T05:49:25;3.50;;;0.80;;
14883;SDS011;7534;50.762;7.000;2023-01-15T05:51:52;2.83;;;0.60;;
14883;SDS011;7534;50.762;7.000;2023-01-15T05:54:20;2.23;;;0.83;;
14883;SDS011;7534;50.762;7.000;2023-01-15T05:56:49;3.50;;;0.80;;
14883;SDS011;7534;50.762;7.000;2023-01-15T05:59:16;2.13;;;0.70;;
14883;SDS011;7534;50.762;7.000;2023-01-15T06:01:44;2.47;;;0.90;;
14883;SDS011;7534;50.762;7.000;2023-01-15T06:04:11;0.57;;;0.40;;
14883;SDS011;7534;50.762;7.000;2023-01-15T06:06:38;2.07;;;0.57;;
14883;SDS011;7534;50.762;7.000;2023-01-15T06:09:06;1.00;;;0.60;;
14883;SDS011;7534;50.762;7.000;2023-01-15T06:11:32;2.50;;;0.90;;
14883;SDS011;7534;50.762;7.000;2023-01-15T06:13:58;3.13;;;0.60;;
14883;SDS011;7534;50.762;7.000;2023-01-15T06:16:24;1.47;;;0.70;;
14883;SDS011;7534;50.762;7.000;2023-01-15T06:18:50;1.70;;;0.60;;
14883;SDS011;7534;50.762;7.000;2023-01-15T06:21:16;1.17;;;0.80;;
14883;SDS011;7534;50.762;7.000;2023-01-15T06:23:43;0.67;;;0.50;;
14883;SDS011;7534;50.762;7.000;2023-01-15T06:26:13;1.10;;;0.60;;
14883;SDS011;7534;50.762;7.000;2023-01-15T06:28:42;1.37;;;0.60;;
14883;SDS011;7534;50.762;7.000;2023-01-15T06:31:10;1.37;;;0.40;;
14883;SDS011;7534;50.762;7.000;2023-01-15T06:33:42;1.20;;;0.60;;
14883;SDS011;7534;50.762;7.000;2023-01-15T06:36:13;1.00;;;0.90;;
14883;SDS011;7534;50.762;7.000;2023-01-15T06:38:41;1.50;;;0.60;;
14883;SDS011;7534;50.762;7.000;2023-01-15T06:41:08;0.50;;;0.50;;
14883;SDS011;7534;50.762;7.000;2023-01-15T06:43:59;0.90;;;0.30;;
14883;SDS011;7534;50.762;7.000;2023-01-15T06:46:44;0.47;;;0.30;;
14883;SDS011;7534;50.762;7.000;2023-01-15T06:49:31;0.57;;;0.40;;
14883;SDS011;7534;50.762;7.000;2023-01-15T06:51:59;0.30;;;0.30;;
14883;SDS011;7534;50.762;7.000;2023-01-15T06:54:25;0.63;;;0.40;;
14883;SDS011;7534;50.762;7.000;2023-01-15T06:56:52;0.30;;;0.30;;
14883;SDS011;7534;50.762;7.000;2023-01-15T06:59:18;0.20;;;0.20;;
14883;SDS011;7534;50.762;7.000;2023-01-15T07:01:44;0.50;;;0.40;;
14883;SDS011;7534;50.762;7.000;2023-01-15T07:04:11;0.87;;;0.50;;
14883;SDS011;7534;50.762;7.000;2023-01-15T07:06:37;0.60;;;0.60;;
14883;SDS011;7534;50.762;7.000;2023-01-15T07:09:03;0.37;;;0.30;;
14883;SDS011;7534;50.762;7.000;2023-01-15T07:11:29;0.67;;;0.30;;
14883;SDS011;7534;50.762;7.000;2023-01-15T07:13:55;0.20;;;0.20;;
14883;SDS011;7534;50.762;7.000;2023-01-15T07:16:36;0.30;;;0.30;;
14883;SDS011;7534;50.762;7.000;2023-01-15T07:19:02;0.53;;;0.30;;
14883;SDS011;7534;50.762;7.000;2023-01-15T07:21:28;0.50;;;0.40;;
14883;SDS011;7534;50.762;7.000;2023-01-15T07:23:57;0.87;;;0.50;;
14883;SDS011;7534;50.762;7.000;2023-01-15T07:26:24;0.73;;;0.70;;
14883;SDS011;7534;50.762;7.000;2023-01-15T07:28:51;1.13;;;0.60;;
14883;SDS011;7534;50.762;7.000;2023-01-15T07:31:16;0.40;;;0.40;;
14883;SDS011;7534;50.762;7.000;2023-01-15T07:33:42;0.37;;;0.27;;
14883;SDS011;7534;50.762;7.000;2023-01-15T07:36:08;1.43;;;0.40;;
14883;SDS011;7534;50.762;7.000;2023-01-15T07:38:35;0.20;;;0.20;;
14883;SDS011;7534;50.762;7.000;2023-01-15T07:41:00;0.30;;;0.30;;
14883;SDS011;7534;50.762;7.000;2023-01-15T07:43:49;0.20;;;0.20;;
14883;SDS011;7534;50.762;7.000;2023-01-15T07:46:34;0.33;;;0.33;;
14883;SDS011;7534;50.762;7.000;2023-01-15T07:49:18;0.13;;;0.13;;
14883;SDS011;7534;50.762;7.000;2023-01-15T07:52:03;0.53;;;0.43;;
14883;SDS011;7534;50.762;7.000;2023-01-15T07:54:29;0.87;;;0.30;;
14883;SDS011;7534;50.762;7.000;2023-01-15T07:56:55;0.20;;;0.20;;
14883;SDS011;7534;50.762;7.000;2023-01-15T07:59:21;0.30;;;0.30;;
14883;SDS011;7534;50.762;7.000;2023-01-15T08:01:47;0.40;;;0.20;;
14883;SDS011;7534;50.762;7.000;2023-01-15T08:04:12;0.37;;;0.30;;
14883;SDS011;7534;50.762;7.000;2023-01-15T08:06:38;0.50;;;0.30;;
14883;SDS011;7534;50.762;7.000;2023-01-15T08:09:04;0.30;;;0.30;;
14883;SDS011;7534;50.762;7.000;2023-01-15T08:11:32;0.23;;;0.23;;
14883;SDS011;7534;50.762;7.000;2023-01-15T08:14:16;0.43;;;0.43;;
14883;SDS011;7534;50.762;7.000;2023-01-15T08:17:01;0.20;;;0.20;;
14883;SDS011;7534;50.762;7.000;2023-01-15T08:19:27;1.67;;;0.40;;
14883;SDS011;7534;50.762;7.000;2023-01-15T08:21:57;0.47;;;0.33;;
14883;SDS011;7534;50.762;7.000;2023-01-15T08:24:25;1.00;;;0.63;;
14883;SDS011;7534;50.762;7.000;2023-01-15T08:26:52;1.13;;;0.50;;
14883;SDS011;7534;50.762;7.000;2023-01-15T08:29:19;0.53;;;0.53;;
14883;SDS011;7534;50.762;7.000;2023-01-15T08:31:46;1.53;;;0.70;;
14883;SDS011;7534;50.762;7.000;2023-01-15T08:34:14;0.97;;;0.70;;
14883;SDS011;7534;50.762;7.000;2023-01-15T08:36:39;0.80;;;0.70;;
14883;SDS011;7534;50.762;7.000;2023-01-15T08:39:05;0.97;;;0.77;;
14883;SDS011;7534;50.762;7.000;2023-01-15T08:41:31;1.00;;;0.73;;
14883;SDS011;7534;50.762;7.000;2023-01-15T08:43:57;1.93;;;0.80;;
14883;SDS011;7534;50.762;7.000;2023-01-15T08:46:23;1.27;;;1.00;;
14883;SDS011;7534;50.762;7.000;2023-01-15T08:48:49;0.83;;;0.73;;
14883;SDS011;7534;50.762;7.000;2023-01-15T08:51:15;1.77;;;0.57;;
14883;SDS011;7534;50.762;7.000;2023-01-15T08:53:41;1.53;;;0.70;;
14883;SDS011;7534;50.762;7.000;2023-01-15T08:56:13;3.93;;;0.77;;
14883;SDS011;7534;50.762;7.000;2023-01-15T08:58:41;1.50;;;0.70;;
14883;SDS011;7534;50.762;7.000;2023-01-15T09:01:10;1.37;;;0.70;;
14883;SDS011;7534;50.762;7.000;2023-01-15T09:03:40;2.00;;;0.80;;
14883;SDS011;7534;50.762;7.000;2023-01-15T09:06:07;2.83;;;0.80;;
14883;SDS011;7534;50.762;7.000;2023-01-15T09:08:35;2.43;;;1.00;;
14883;SDS011;7534;50.762;7.000;2023-01-15T09:11:02;1.20;;;0.77;;
14883;SDS011;7534;50.762;7.000;2023-01-15T09:13:31;3.63;;;0.90;;
14883;SDS011;7534;50.762;7.000;2023-01-15T09:15:58;3.63;;;0.80;;
14883;SDS011;7534;50.762;7.000;2023-01-15T09:18:28;3.13;;;1.00;;
14883;SDS011;7534;50.762;7.000;2023-01-15T09:20:55;1.83;;;0.80;;
14883;SDS011;7534;50.762;7.000;2023-01-15T09:23:20;1.37;;;0.73;;
14883;SDS011;7534;50.762;7.000;2023-01-15T09:25:50;2.03;;;0.87;;
14883;SDS011;7534;50.762;7.000;2023-01-15T09:28:31;2.13;;;0.90;;
14883;SDS011;7534;50.762;7.000;2023-01-15T09:30:59;4.00;;;1.10;;
14883;SDS011;7534;50.762;7.000;2023-01-15T09:33:25;1.87;;;0.73;;
14883;SDS011;7534;50.762;7.000;2023-01-15T09:35:51;2.92;;;1.05;;
14883;SDS011;7534;50.762;7.000;2023-01-15T09:38:18;3.38;;;1.00;;
14883;SDS011;7534;50.762;7.000;2023-01-15T09:40:49;2.23;;;1.17;;
14883;SDS011;7534;50.762;7.000;2023-01-15T09:43:23;3.03;;;0.93;;
14883;SDS011;7534;50.762;7.000;2023-01-15T09:46:19;2.87;;;1.23;;
14883;SDS011;7534;50.762;7.000;2023-01-15T09:57:29;3.53;;;0.90;;
14883;SDS011;7534;50.762;7.000;2023-01-15T09:59:57;3.27;;;1.00;;
14883;SDS011;7534;50.762;7.000;2023-01-15T10:02:34;5.63;;;1.10;;
14883;SDS011;7534;50.762;7.000;2023-01-15T10:05:21;2.17;;;0.97;;
14883;SDS011;7534;50.762;7.000;2023-01-15T10:08:08;2.23;;;0.93;;
14883;SDS011;7534;50.762;7.000;2023-01-15T10:10:44;4.87;;;1.00;;
14883;SDS011;7534;50.762;7.000;2023-01-15T10:13:26;2.40;;;0.93;;
14883;SDS011;7534;50.762;7.000;2023-01-15T10:16:08;3.50;;;1.00;;
14883;SDS011;7534;50.762;7.000;2023-01-15T10:18:37;2.80;;;0.97;;
14883;SDS011;7534;50.762;7.000;2023-01-15T10:26:46;2.37;;;1.00;;
14883;SDS011;7534;50.762;7.000;2023-01-15T10:29:41;2.87;;;1.13;;
14883;SDS011;7534;50.762;7.000;2023-01-15T10:37:57;3.73;;;1.03;;
14883;SDS011;7534;50.762;7.000;2023-01-15T10:46:13;5.00;;;1.30;;
14883;SDS011;7534;50.762;7.000;2023-01-15T10:51:40;5.43;;;1.17;;
14883;SDS011;7534;50.762;7.000;2023-01-15T10:54:26;4.97;;;1.20;;
14883;SDS011;7534;50.762;7.000;2023-01-15T10:57:17;3.47;;;1.30;;
14883;SDS011;7534;50.762;7.000;2023-01-15T10:59:59;2.60;;;1.10;;
14883;SDS011;7534;50.762;7.000;2023-01-15T11:05:18;6.17;;;1.87;;
14883;SDS011;7534;50.762;7.000;2023-01-15T11:07:46;3.87;;;1.10;;
14883;SDS011;7534;50.762;7.000;2023-01-15T11:10:17;3.43;;;1.20;;
14883;SDS011;7534;50.762;7.000;2023-01-15T11:13:12;2.70;;;1.00;;
14883;SDS011;7534;50.762;7.000;2023-01-15T11:16:05;4.80;;;1.10;;
14883;SDS011;7534;50.762;7.000;2023-01-15T11:19:00;2.07;;;1.00;;
14883;SDS011;7534;50.762;7.000;2023-01-15T11:21:49;3.93;;;0.97;;
14883;SDS011;7534;50.762;7.000;2023-01-15T11:24:17;3.20;;;1.00;;
14883;SDS011;7534;50.762;7.000;2023-01-15T11:26:50;3.73;;;1.30;;
14883;SDS011;7534;50.762;7.000;2023-01-15T11:29:30;2.83;;;1.00;;
14883;SDS011;7534;50.762;7.000;2023-01-15T11:32:03;3.80;;;1.30;;
14883;SDS011;7534;50.762;7.000;2023-01-15T11:34:51;3.17;;;1.00;;
14883;SDS011;7534;50.762;7.000;2023-01-15T11:37:26;2.07;;;1.00;;
14883;SDS011;7534;50.762;7.000;2023-01-15T11:39:54;3.87;;;1.13;;
14883;SDS011;7534;50.762;7.000;2023-01-15T11:42:29;3.57;;;0.90;;
14883;SDS011;7534;50.762;7.000;2023-01-15T11:45:15;2.93;;;0.80;;
14883;SDS011;7534;50.762;7.000;2023-01-15T11:48:08;2.13;;;1.13;;
14883;SDS011;7534;50.762;7.000;2023-01-15T11:51:05;4.27;;;1.43;;
14883;SDS011;7534;50.762;7.000;2023-01-15T11:53:39;6.60;;;1.20;;
14883;SDS011;7534;50.762;7.000;2023-01-15T11:56:21;3.03;;;1.03;;
14883;SDS011;7534;50.762;7.000;2023-01-15T11:58:55;1.97;;;0.90;;
14883;SDS011;7534;50.762;7.000;2023-01-15T12:01:37;2.97;;;1.00;;
14883;SDS011;7534;50.762;7.000;2023-01-15T12:07:21;3.87;;;1.33;;
14883;SDS011;7534;50.762;7.000;2023-01-15T12:16:08;4.60;;;1.00;;
14883;SDS011;7534;50.762;7.000;2023-01-15T12:30:20;3.70;;;1.23;;
14883;SDS011;7534;50.762;7.000;2023-01-15T12:36:20;5.60;;;1.40;;
14883;SDS011;7534;50.762;7.000;2023-01-15T12:41:45;4.43;;;1.40;;
14883;SDS011;7534;50.762;7.000;2023-01-15T12:44:39;3.60;;;1.10;;
14883;SDS011;7534;50.762;7.000;2023-01-15T12:47:30;4.00;;;1.30;;
14883;SDS011;7534;50.762;7.000;2023-01-15T12:50:34;4.03;;;1.30;;
14883;SDS011;7534;50.762;7.000;2023-01-15T12:53:21;4.27;;;1.00;;
14883;SDS011;7534;50.762;7.000;2023-01-15T12:58:53;4.87;;;1.17;;
14883;SDS011;7534;50.762;7.000;2023-01-15T13:04:58;2.50;;;0.90;;
14883;SDS011;7534;50.762;7.000;2023-01-15T13:07:42;3.37;;;0.80;;
14883;SDS011;7534;50.762;7.000;2023-01-15T13:10:49;3.43;;;1.00;;
14883;SDS011;7534;50.762;7.000;2023-01-15T13:13:18;2.17;;;0.90;;
14883;SDS011;7534;50.762;7.000;2023-01-15T13:21:47;2.83;;;0.93;;
14883;SDS011;7534;50.762;7.000;2023-01-15T13:24:35;2.80;;;1.10;;
14883;SDS011;7534;50.762;7.000;2023-01-15T13:27:38;3.97;;;1.00;;
14883;SDS011;7534;50.762;7.000;2023-01-15T13:33:23;2.53;;;0.87;;
14883;SDS011;7534;50.762;7.000;2023-01-15T13:36:19;3.73;;;1.00;;
14883;SDS011;7534;50.762;7.000;2023-01-15T13:38:54;2.27;;;0.90;;
14883;SDS011;7534;50.762;7.000;2023-01-15T13:41:27;4.60;;;1.47;;
14883;SDS011;7534;50.762;7.000;2023-01-15T13:44:22;5.90;;;1.10;;
14883;SDS011;7534;50.762;7.000;2023-01-15T13:47:08;3.60;;;1.27;;
14883;SDS011;7534;50.762;7.000;2023-01-15T13:49:45;1.67;;;0.93;;
14883;SDS011;7534;50.762;7.000;2023-01-15T13:52:20;2.90;;;1.10;;
14883;SDS011;7534;50.762;7.000;2023-01-15T13:57:40;3.03;;;1.10;;
14883;SDS011;7534;50.762;7.000;2023-01-15T14:03:22;1.93;;;0.90;;
14883;SDS011;7534;50.762;7.000;2023-01-15T14:06:03;3.50;;;1.03;;
14883;SDS011;7534;50.762;7.000;2023-01-15T14:08:40;2.00;;;1.00;;
14883;SDS011;7534;50.762;7.000;2023-01-15T14:14:29;1.80;;;1.03;;
14883;SDS011;7534;50.762;7.000;2023-01-15T14:20:30;2.87;;;1.13;;
14883;SDS011;7534;50.762;7.000;2023-01-15T14:34:58;2.10;;;1.00;;
14883;SDS011;7534;50.762;7.000;2023-01-15T14:37:29;2.57;;;0.83;;
14883;SDS011;7534;50.762;7.000;2023-01-15T14:40:23;2.73;;;1.03;;
14883;SDS011;7534;50.762;7.000;2023-01-15T14:42:55;3.10;;;1.20;;
14883;SDS011;7534;50.762;7.000;2023-01-15T14:45:40;1.88;;;0.98;;
14883;SDS011;7534;50.762;7.000;2023-01-15T14:48:20;2.50;;;1.10;;
14883;SDS011;7534;50.762;7.000;2023-01-15T14:51:24;2.40;;;1.00;;
14883;SDS011;7534;50.762;7.000;2023-01-15T14:54:12;3.27;;;1.07;;
14883;SDS011;7534;50.762;7.000;2023-01-15T14:56:44;4.37;;;1.00;;
14883;SDS011;7534;50.762;7.000;2023-01-15T15:02:21;3.00;;;1.23;;
14883;SDS011;7534;50.762;7.000;2023-01-15T15:05:02;2.73;;;1.10;;
14883;SDS011;7534;50.762;7.000;2023-01-15T15:07:39;1.50;;;1.00;;
14883;SDS011;7534;50.762;7.000;2023-01-15T15:16:03;1.90;;;0.90;;
14883;SDS011;7534;50.762;7.000;2023-01-15T15:21:55;1.03;;;0.87;;
14883;SDS011;7534;50.762;7.000;2023-01-15T15:24:31;1.83;;;0.80;;
14883;SDS011;7534;50.762;7.000;2023-01-15T15:27:16;2.43;;;0.90;;
14883;SDS011;7534;50.762;7.000;2023-01-15T15:29:45;1.77;;;1.00;;
14883;SDS011;7534;50.762;7.000;2023-01-15T15:32:17;2.90;;;0.80;;
14883;SDS011;7534;50.762;7.000;2023-01-15T15:34:47;2.77;;;0.80;;
14883;SDS011;7534;50.762;7.000;2023-01-15T15:37:21;1.30;;;0.67;;
14883;SDS011;7534;50.762;7.000;2023-01-15T15:40:04;2.07;;;0.70;;
14883;SDS011;7534;50.762;7.000;2023-01-15T15:42:46;1.77;;;0.87;;
14883;SDS011;7534;50.762;7.000;2023-01-15T15:45:52;4.07;;;1.00;;
14883;SDS011;7534;50.762;7.000;2023-01-15T15:48:39;2.33;;;0.90;;
14883;SDS011;7534;50.762;7.000;2023-01-15T15:54:24;3.23;;;0.83;;
14883;SDS011;7534;50.762;7.000;2023-01-15T15:59:35;2.17;;;1.03;;
14883;SDS011;7534;50.762;7.000;2023-01-15T16:02:18;1.10;;;0.80;;
14883;SDS011;7534;50.762;7.000;2023-01-15T16:04:56;2.37;;;1.10;;
14883;SDS011;7534;50.762;7.000;2023-01-15T16:07:34;2.27;;;0.83;;
14883;SDS011;7534;50.762;7.000;2023-01-15T16:10:12;1.73;;;0.97;;
14883;SDS011;7534;50.762;7.000;2023-01-15T16:12:45;2.33;;;1.10;;
14883;SDS011;7534;50.762;7.000;2023-01-15T16:15:17;2.20;;;0.90;;
14883;SDS011;7534;50.762;7.000;2023-01-15T16:17:52;1.30;;;0.97;;
14883;SDS011;7534;50.762;7.000;2023-01-15T16:20:19;3.23;;;1.13;;
14883;SDS011;7534;50.762;7.000;2023-01-15T16:22:48;1.67;;;1.20;;
14883;SDS011;7534;50.762;7.000;2023-01-15T16:28:05;2.77;;;1.67;;
14883;SDS011;7534;50.762;7.000;2023-01-15T16:30:55;1.70;;;1.10;;
14883;SDS011;7534;50.762;7.000;2023-01-15T16:33:23;1.47;;;1.00;;
14883;SDS011;7534;50.762;7.000;2023-01-15T16:35:54;1.70;;;1.10;;
14883;SDS011;7534;50.762;7.000;2023-01-15T16:38:28;3.03;;;1.20;;
14883;SDS011;7534;50.762;7.000;2023-01-15T16:40:57;3.17;;;1.10;;
14883;SDS011;7534;50.762;7.000;2023-01-15T16:43:25;3.33;;;1.03;;
14883;SDS011;7534;50.762;7.000;2023-01-15T16:45:58;2.03;;;1.03;;
14883;SDS011;7534;50.762;7.000;2023-01-15T16:48:34;2.97;;;1.30;;
14883;SDS011;7534;50.762;7.000;2023-01-15T16:51:44;3.37;;;1.10;;
14883;SDS011;7534;50.762;7.000;2023-01-15T16:53:59;1.63;;;1.00;;
14883;SDS011;7534;50.762;7.000;2023-01-15T16:58:58;2.30;;;0.90;;
14883;SDS011;7534;50.762;7.000;2023-01-15T17:06:59;2.67;;;0.97;;
14883;SDS011;7534;50.762;7.000;2023-01-15T17:09:32;2.23;;;0.87;;
14883;SDS011;7534;50.762;7.000;2023-01-15T17:12:03;1.53;;;1.00;;
14883;SDS011;7534;50.762;7.000;2023-01-15T17:14:42;1.47;;;0.90;;
14883;SDS011;7534;50.762;7.000;2023-01-15T17:17:16;2.33;;;1.10;;
14883;SDS011;7534;50.762;7.000;2023-01-15T17:19:46;3.37;;;1.03;;
14883;SDS011;7534;50.762;7.000;2023-01-15T17:22:13;3.07;;;1.10;;
14883;SDS011;7534;50.762;7.000;2023-01-15T17:24:50;1.80;;;0.97;;
14883;SDS011;7534;50.762;7.000;2023-01-15T17:27:18;2.70;;;1.00;;
14883;SDS011;7534;50.762;7.000;2023-01-15T17:29:44;3.10;;;1.13;;
14883;SDS011;7534;50.762;7.000;2023-01-15T17:32:15;3.00;;;1.13;;
14883;SDS011;7534;50.762;7.000;2023-01-15T17:34:48;2.57;;;1.27;;
14883;SDS011;7534;50.762;7.000;2023-01-15T17:37:13;1.90;;;1.00;;
14883;SDS011;7534;50.762;7.000;2023-01-15T17:39:39;1.53;;;1.00;;
14883;SDS011;7534;50.762;7.000;2023-01-15T17:42:15;1.63;;;0.97;;
14883;SDS011;7534;50.762;7.000;2023-01-15T17:44:43;1.93;;;0.93;;
14883;SDS011;7534;50.762;7.000;2023-01-15T17:47:10;1.83;;;1.07;;
14883;SDS011;7534;50.762;7.000;2023-01-15T17:49:36;4.70;;;1.20;;
14883;SDS011;7534;50.762;7.000;2023-01-15T17:52:15;2.10;;;0.97;;
14883;SDS011;7534;50.762;7.000;2023-01-15T17:54:44;2.47;;;1.00;;
14883;SDS011;7534;50.762;7.000;2023-01-15T17:57:28;2.60;;;0.90;;
14883;SDS011;7534;50.762;7.000;2023-01-15T18:00:20;1.17;;;0.80;;
14883;SDS011;7534;50.762;7.000;2023-01-15T18:03:06;1.93;;;1.20;;
14883;SDS011;7534;50.762;7.000;2023-01-15T18:06:01;1.30;;;0.90;;
14883;SDS011;7534;50.762;7.000;2023-01-15T18:08:28;3.00;;;1.10;;
14883;SDS011;7534;50.762;7.000;2023-01-15T18:10:55;2.47;;;1.40;;
14883;SDS011;7534;50.762;7.000;2023-01-15T18:13:21;3.20;;;1.20;;
14883;SDS011;7534;50.762;7.000;2023-01-15T18:15:47;2.60;;;1.30;;